createdAt,value
2023-03-22T00:01:37.555Z,24.42
2023-03-22T00:04:04.678Z,23.23
2023-03-22T00:06:31.329Z,25.25
2023-03-22T00:08:57.999Z,24.80
2023-03-22T00:11:25.661Z,20.67
2023-03-22T00:13:53.489Z,29.00
2023-03-22T00:16:21.048Z,44.47
2023-03-22T00:18:47.734Z,37.75
2023-03-22T00:21:16.558Z,24.25
2023-03-22T00:23:43.702Z,20.45
2023-03-22T00:26:11.513Z,19.90
2023-03-22T00:28:38.813Z,19.67
2023-03-22T00:31:06.433Z,23.48
2023-03-22T00:33:35.309Z,24.35
2023-03-22T00:36:05.811Z,20.80
2023-03-22T00:38:43.878Z,22.98
2023-03-22T00:41:16.422Z,21.17
2023-03-22T00:43:45.898Z,25.17
2023-03-22T00:46:13.779Z,21.80
2023-03-22T00:48:40.751Z,24.13
2023-03-22T00:51:08.489Z,24.00
2023-03-22T00:53:36.816Z,22.92
2023-03-22T00:56:04.964Z,23.25
2023-03-22T00:58:39.877Z,22.90
2023-03-22T01:01:07.318Z,22.40
2023-03-22T01:03:34.846Z,27.70
2023-03-22T01:06:01.949Z,23.38
2023-03-22T01:08:33.097Z,29.75
2023-03-22T01:11:01.009Z,36.55
2023-03-22T01:13:28.774Z,26.65
2023-03-22T01:15:55.601Z,22.70
2023-03-22T01:18:22.512Z,22.27
2023-03-22T01:20:49.075Z,23.98
2023-03-22T01:23:16.912Z,23.33
2023-03-22T01:25:43.569Z,23.90
2023-03-22T01:28:10.528Z,24.27
2023-03-22T01:30:40.470Z,22.98
2023-03-22T01:33:07.650Z,23.13
2023-03-22T01:35:35.889Z,24.13
2023-03-22T01:38:03.657Z,23.38
2023-03-22T01:40:30.836Z,22.30
2023-03-22T01:42:57.821Z,23.38
2023-03-22T01:45:27.911Z,24.55
2023-03-22T01:47:59.037Z,25.27
2023-03-22T01:50:26.595Z,26.08
2023-03-22T01:52:55.280Z,24.95
2023-03-22T01:55:27.437Z,23.73
2023-03-22T01:58:08.097Z,23.85
2023-03-22T02:00:47.135Z,24.92
2023-03-22T02:03:35.413Z,22.70
2023-03-22T02:06:02.195Z,23.63
2023-03-22T02:08:30.398Z,23.38
2023-03-22T02:11:03.240Z,23.02
2023-03-22T02:13:58.039Z,23.45
2023-03-22T02:17:12.977Z,24.67
2023-03-22T02:20:21.088Z,24.77
2023-03-22T02:22:59.906Z,25.05
2023-03-22T02:25:47.991Z,26.15
2023-03-22T02:28:18.933Z,23.02
2023-03-22T02:30:55.117Z,25.00
2023-03-22T02:33:41.774Z,24.20
2023-03-22T02:36:11.672Z,24.23
2023-03-22T02:38:57.633Z,25.15
2023-03-22T02:41:47.051Z,23.60
2023-03-22T02:44:22.901Z,24.70
2023-03-22T02:47:03.157Z,24.05
2023-03-22T02:49:37.296Z,24.33
2023-03-22T02:52:25.669Z,24.58
2023-03-22T02:55:05.654Z,23.75
2023-03-22T02:57:47.786Z,25.48
2023-03-22T03:00:16.024Z,25.45
2023-03-22T03:02:48.750Z,23.63
2023-03-22T03:05:17.286Z,23.73
2023-03-22T03:07:48.875Z,24.77
2023-03-22T03:10:17.856Z,24.17
2023-03-22T03:12:44.724Z,25.00
2023-03-22T03:15:16.976Z,24.67
2023-03-22T03:18:13.584Z,24.13
2023-03-22T03:20:54.329Z,25.48
2023-03-22T03:23:49.600Z,25.13
2023-03-22T03:29:31.980Z,24.38
2023-03-22T03:32:21.059Z,23.88
2023-03-22T03:34:52.994Z,23.73
2023-03-22T03:37:23.875Z,22.90
2023-03-22T03:39:58.200Z,24.23
2023-03-22T03:42:28.312Z,24.70
2023-03-22T03:44:56.016Z,22.90
2023-03-22T03:47:23.964Z,33.97
2023-03-22T03:49:50.918Z,23.50
2023-03-22T03:52:17.560Z,26.13
2023-03-22T03:54:45.489Z,23.67
2023-03-22T03:57:16.505Z,23.42
2023-03-22T03:59:43.175Z,24.75
2023-03-22T04:02:18.419Z,24.85
2023-03-22T04:04:46.401Z,24.33
2023-03-22T04:07:13.076Z,23.98
2023-03-22T04:09:40.383Z,24.90
2023-03-22T04:12:26.709Z,26.48
2023-03-22T04:15:12.258Z,23.85
2023-03-22T04:17:40.154Z,24.23
2023-03-22T04:20:10.732Z,26.52
2023-03-22T04:22:38.555Z,30.52
2023-03-22T04:25:12.263Z,26.00
2023-03-22T04:27:47.073Z,28.85
2023-03-22T04:30:22.184Z,28.40
2023-03-22T04:33:19.029Z,26.48
2023-03-22T04:36:10.147Z,29.50
2023-03-22T04:38:47.571Z,27.83
2023-03-22T04:41:19.288Z,29.00
2023-03-22T04:43:50.828Z,29.60
2023-03-22T04:46:18.292Z,28.95
2023-03-22T04:48:51.143Z,29.00
2023-03-22T04:51:18.412Z,36.88
2023-03-22T04:54:00.436Z,33.47
2023-03-22T04:56:27.311Z,29.20
2023-03-22T04:58:54.372Z,31.83
2023-03-22T05:01:21.276Z,33.08
2023-03-22T05:06:23.576Z,30.75
2023-03-22T05:09:03.499Z,33.78
2023-03-22T05:11:30.227Z,33.88
2023-03-22T05:14:10.388Z,34.83
2023-03-22T05:16:40.528Z,34.58
2023-03-22T05:19:13.899Z,30.08
2023-03-22T05:21:44.053Z,33.83
2023-03-22T05:24:11.360Z,30.35
2023-03-22T05:26:42.197Z,36.92
2023-03-22T05:29:11.243Z,28.90
2023-03-22T05:31:56.498Z,33.85
2023-03-22T05:34:23.248Z,36.60
2023-03-22T05:36:51.450Z,32.58
2023-03-22T05:39:26.684Z,32.25
2023-03-22T05:41:53.469Z,34.30
2023-03-22T05:44:20.515Z,36.08
2023-03-22T05:47:02.014Z,32.10
2023-03-22T05:49:52.597Z,32.65
2023-03-22T05:52:22.876Z,31.70
2023-03-22T05:55:19.814Z,36.90
2023-03-22T05:57:51.284Z,31.17
2023-03-22T06:00:18.772Z,31.20
2023-03-22T06:03:05.709Z,36.65
2023-03-22T06:05:38.456Z,31.95
2023-03-22T06:08:05.533Z,30.90
2023-03-22T06:10:32.175Z,27.50
2023-03-22T06:12:58.905Z,35.03
2023-03-22T06:15:29.538Z,32.65
2023-03-22T06:18:07.540Z,32.72
2023-03-22T06:20:40.073Z,30.20
2023-03-22T06:23:13.037Z,34.33
2023-03-22T06:25:41.272Z,33.30
2023-03-22T06:28:08.845Z,30.77
2023-03-22T06:30:37.445Z,28.40
2023-03-22T06:33:22.348Z,26.25
2023-03-22T06:35:54.583Z,29.58
2023-03-22T06:38:29.927Z,27.60
2023-03-22T06:40:57.453Z,30.27
2023-03-22T06:43:24.220Z,29.20
2023-03-22T06:45:57.281Z,29.23
2023-03-22T06:48:29.712Z,26.48
2023-03-22T06:51:04.438Z,29.95
2023-03-22T06:53:34.200Z,23.88
2023-03-22T06:56:02.612Z,24.40
2023-03-22T06:58:33.142Z,24.50
2023-03-22T07:00:59.996Z,24.40
2023-03-22T07:03:27.969Z,24.98
2023-03-22T07:06:03.772Z,26.92
2023-03-22T07:08:32.916Z,24.95
2023-03-22T07:10:59.701Z,22.85
2023-03-22T07:13:27.154Z,24.17
2023-03-22T07:16:01.080Z,27.55
2023-03-22T07:18:37.635Z,26.02
2023-03-22T07:21:04.839Z,28.45
2023-03-22T07:23:32.617Z,28.58
2023-03-22T07:26:05.893Z,29.75
2023-03-22T07:28:34.302Z,28.23
2023-03-22T07:31:05.337Z,27.33
2023-03-22T07:33:42.463Z,27.33
2023-03-22T07:36:10.292Z,29.60
2023-03-22T07:38:37.469Z,26.98
2023-03-22T07:41:08.394Z,28.55
2023-03-22T07:43:55.452Z,27.02
2023-03-22T07:46:25.096Z,29.15
2023-03-22T07:49:14.822Z,27.90
2023-03-22T07:52:10.810Z,29.60
2023-03-22T07:54:38.110Z,26.40
2023-03-22T07:57:06.724Z,25.63
2023-03-22T07:59:39.268Z,28.67
2023-03-22T08:02:08.276Z,27.65
2023-03-22T08:04:40.520Z,26.42
2023-03-22T08:07:13.672Z,28.50
2023-03-22T08:09:41.348Z,26.30
2023-03-22T08:12:07.969Z,27.15
2023-03-22T08:14:37.327Z,27.63
2023-03-22T08:17:08.490Z,27.30
2023-03-22T08:19:35.401Z,26.23
2023-03-22T08:22:02.157Z,30.48
2023-03-22T08:24:47.992Z,27.15
2023-03-22T08:27:24.844Z,27.17
2023-03-22T08:29:51.608Z,25.55
2023-03-22T08:32:18.964Z,26.30
2023-03-22T08:34:45.801Z,26.67
2023-03-22T08:37:13.012Z,27.25
2023-03-22T08:39:40.648Z,28.05
2023-03-22T08:42:21.692Z,26.75
2023-03-22T08:44:49.141Z,27.48
2023-03-22T08:47:15.917Z,27.95
2023-03-22T08:49:43.556Z,33.75
2023-03-22T08:52:21.109Z,33.85
2023-03-22T08:55:01.957Z,33.30
2023-03-22T08:57:50.245Z,29.98
2023-03-22T09:00:48.685Z,31.45
2023-03-22T09:03:24.805Z,27.17
2023-03-22T09:05:51.638Z,26.70
2023-03-22T09:08:19.823Z,27.25
2023-03-22T09:10:51.874Z,27.42
2023-03-22T09:13:21.632Z,27.50
2023-03-22T09:15:56.549Z,26.73
2023-03-22T09:18:26.572Z,29.13
2023-03-22T09:20:55.708Z,27.63
2023-03-22T09:23:27.036Z,27.63
2023-03-22T09:25:54.412Z,28.70
2023-03-22T09:28:24.297Z,27.05
2023-03-22T09:30:52.557Z,28.48
2023-03-22T09:33:21.352Z,28.70
2023-03-22T09:35:50.568Z,28.25
2023-03-22T09:38:17.709Z,28.05
2023-03-22T09:40:53.269Z,27.17
2023-03-22T09:43:20.629Z,27.10
2023-03-22T09:45:51.029Z,28.20
2023-03-22T09:48:20.525Z,37.38
2023-03-22T09:50:51.041Z,55.95
2023-03-22T09:53:18.811Z,29.15
2023-03-22T09:55:50.332Z,29.98
2023-03-22T09:58:34.846Z,26.80
2023-03-22T10:01:21.259Z,28.13
2023-03-22T10:04:07.535Z,27.33
2023-03-22T10:06:34.263Z,31.42
2023-03-22T10:09:19.311Z,32.95
2023-03-22T10:11:54.725Z,34.08
2023-03-22T10:14:41.432Z,31.15
2023-03-22T10:17:18.985Z,32.45
2023-03-22T10:19:56.428Z,32.17
2023-03-22T10:22:29.953Z,34.63
2023-03-22T10:24:58.145Z,29.42
2023-03-22T10:27:28.848Z,32.72
2023-03-22T10:30:21.792Z,34.47
2023-03-22T10:32:58.117Z,34.10
2023-03-22T10:35:25.709Z,30.63
2023-03-22T10:37:54.520Z,33.13
2023-03-22T10:40:31.864Z,33.55
2023-03-22T10:43:07.381Z,33.03
2023-03-22T10:45:35.849Z,32.42
2023-03-22T10:48:11.637Z,34.03
2023-03-22T10:50:41.756Z,31.80
2023-03-22T10:53:27.704Z,31.65
2023-03-22T10:55:54.281Z,29.45
2023-03-22T10:58:22.731Z,31.75
2023-03-22T11:00:54.474Z,33.03
2023-03-22T11:03:31.730Z,29.70
2023-03-22T11:06:06.247Z,32.17
2023-03-22T11:08:54.140Z,29.00
2023-03-22T11:11:38.291Z,31.30
2023-03-22T11:14:19.202Z,32.22
2023-03-22T11:16:55.864Z,30.33
2023-03-22T11:19:37.908Z,32.47
2023-03-22T11:22:28.068Z,31.35
2023-03-22T11:24:56.584Z,32.55
2023-03-22T11:27:24.702Z,31.98
2023-03-22T11:29:58.626Z,31.65
2023-03-22T11:32:36.361Z,31.92
2023-03-22T11:35:20.327Z,33.03
2023-03-22T11:37:50.255Z,33.08
2023-03-22T11:40:36.080Z,32.88
2023-03-22T11:43:19.335Z,35.35
2023-03-22T11:45:49.055Z,32.85
2023-03-22T11:48:21.107Z,35.30
2023-03-22T11:50:48.665Z,34.15
2023-03-22T11:53:22.531Z,32.53
2023-03-22T11:55:51.225Z,33.70
2023-03-22T11:58:27.934Z,31.08
2023-03-22T12:00:59.326Z,32.85
2023-03-22T12:03:32.068Z,28.85
2023-03-22T12:06:05.071Z,29.02
2023-03-22T12:08:44.725Z,29.75
2023-03-22T12:11:17.643Z,31.30
2023-03-22T12:13:54.356Z,29.60
2023-03-22T12:16:26.450Z,39.08
2023-03-22T12:19:13.909Z,31.83
2023-03-22T12:21:42.755Z,30.08
2023-03-22T12:24:27.089Z,29.52
2023-03-22T12:26:58.252Z,29.38
2023-03-22T12:29:26.902Z,28.50
2023-03-22T12:32:03.922Z,28.33
2023-03-22T12:34:40.741Z,30.90
2023-03-22T12:37:11.939Z,28.77
2023-03-22T12:39:45.577Z,29.10
2023-03-22T12:42:23.127Z,27.60
2023-03-22T12:45:02.517Z,29.08
2023-03-22T12:47:42.483Z,29.25
2023-03-22T12:50:25.492Z,29.85
2023-03-22T12:52:56.227Z,34.03
2023-03-22T12:55:30.769Z,29.70
2023-03-22T12:57:58.380Z,32.63
2023-03-22T13:00:41.659Z,29.95
2023-03-22T13:03:17.567Z,30.40
2023-03-22T13:05:46.662Z,33.50
2023-03-22T13:08:19.222Z,31.33
2023-03-22T13:10:59.552Z,30.63
2023-03-22T13:13:27.580Z,31.35
2023-03-22T13:16:09.722Z,30.02
2023-03-22T13:18:37.424Z,31.08
2023-03-22T13:21:18.990Z,30.25
2023-03-22T13:24:10.378Z,29.27
2023-03-22T13:26:45.879Z,27.58
2023-03-22T13:29:24.414Z,27.67
2023-03-22T13:31:51.157Z,28.10
2023-03-22T13:34:45.547Z,28.67
2023-03-22T13:37:57.429Z,30.65
2023-03-22T13:40:36.357Z,30.77
2023-03-22T13:43:13.626Z,29.08
2023-03-22T13:46:00.824Z,31.02
2023-03-22T13:48:29.400Z,33.97
2023-03-22T13:50:58.194Z,32.83
2023-03-22T13:53:30.788Z,32.38
2023-03-22T13:56:00.903Z,33.30
2023-03-22T13:58:32.921Z,31.63
2023-03-22T14:01:00.837Z,30.63
2023-03-22T14:03:36.595Z,31.30
2023-03-22T14:06:24.881Z,30.52
2023-03-22T14:08:57.137Z,29.90
2023-03-22T14:11:32.787Z,29.73
2023-03-22T14:14:14.813Z,30.23
2023-03-22T14:16:45.239Z,30.65
2023-03-22T14:19:33.291Z,31.20
